sensor_id;sensor_type;location;lat;lon;timestamp;P1;durP1;ratioP1;P2;durP2;ratioP2
68509;SDS011;55512;50.102;19.958;2022-12-07T00:01:31;12.50;;;5.60;;
68509;SDS011;55512;50.102;19.958;2022-12-07T00:04:00;12.40;;;5.70;;
68509;SDS011;55512;50.102;19.958;2022-12-07T00:06:44;10.70;;;5.20;;
68509;SDS011;55512;50.102;19.958;2022-12-07T00:09:14;11.10;;;5.40;;
68509;SDS011;55512;50.102;19.958;2022-12-07T00:11:41;9.60;;;3.90;;
68509;SDS011;55512;50.102;19.958;2022-12-07T00:14:11;9.90;;;5.30;;
68509;SDS011;55512;50.102;19.958;2022-12-07T00:16:38;11.30;;;5.20;;
68509;SDS011;55512;50.102;19.958;2022-12-07T00:19:04;11.80;;;5.00;;
68509;SDS011;55512;50.102;19.958;2022-12-07T00:21:35;12.50;;;5.20;;
68509;SDS011;55512;50.102;19.958;2022-12-07T00:24:02;9.90;;;4.80;;
68509;SDS011;55512;50.102;19.958;2022-12-07T00:26:33;12.40;;;5.40;;
68509;SDS011;55512;50.102;19.958;2022-12-07T00:29:04;7.80;;;4.10;;
68509;SDS011;55512;50.102;19.958;2022-12-07T00:31:35;10.00;;;4.90;;
68509;SDS011;55512;50.102;19.958;2022-12-07T00:34:05;10.50;;;4.80;;
68509;SDS011;55512;50.102;19.958;2022-12-07T00:36:32;8.50;;;3.70;;
68509;SDS011;55512;50.102;19.958;2022-12-07T00:38:59;5.50;;;2.50;;
68509;SDS011;55512;50.102;19.958;2022-12-07T00:41:26;9.70;;;4.20;;
68509;SDS011;55512;50.102;19.958;2022-12-07T00:43:54;9.70;;;5.00;;
68509;SDS011;55512;50.102;19.958;2022-12-07T00:46:20;7.30;;;2.60;;
68509;SDS011;55512;50.102;19.958;2022-12-07T00:48:47;7.60;;;3.20;;
68509;SDS011;55512;50.102;19.958;2022-12-07T00:51:15;7.90;;;3.50;;
68509;SDS011;55512;50.102;19.958;2022-12-07T00:53:42;8.40;;;3.80;;
68509;SDS011;55512;50.102;19.958;2022-12-07T00:56:12;9.00;;;4.00;;
68509;SDS011;55512;50.102;19.958;2022-12-07T00:58:40;9.10;;;3.90;;
68509;SDS011;55512;50.102;19.958;2022-12-07T01:01:06;8.60;;;3.60;;
68509;SDS011;55512;50.102;19.958;2022-12-07T01:03:33;9.80;;;3.80;;
68509;SDS011;55512;50.102;19.958;2022-12-07T01:05:58;7.10;;;3.70;;
68509;SDS011;55512;50.102;19.958;2022-12-07T01:08:26;6.40;;;2.60;;
68509;SDS011;55512;50.102;19.958;2022-12-07T01:11:04;6.80;;;3.30;;
68509;SDS011;55512;50.102;19.958;2022-12-07T01:13:33;7.00;;;3.10;;
68509;SDS011;55512;50.102;19.958;2022-12-07T01:16:01;8.90;;;3.60;;
68509;SDS011;55512;50.102;19.958;2022-12-07T01:18:32;6.70;;;2.90;;
68509;SDS011;55512;50.102;19.958;2022-12-07T01:21:09;7.50;;;3.50;;
68509;SDS011;55512;50.102;19.958;2022-12-07T01:23:40;8.90;;;3.60;;
68509;SDS011;55512;50.102;19.958;2022-12-07T01:26:10;9.00;;;3.80;;
68509;SDS011;55512;50.102;19.958;2022-12-07T01:28:37;8.20;;;3.80;;
68509;SDS011;55512;50.102;19.958;2022-12-07T01:31:07;8.50;;;3.80;;
68509;SDS011;55512;50.102;19.958;2022-12-07T01:33:41;8.20;;;3.40;;
68509;SDS011;55512;50.102;19.958;2022-12-07T01:36:17;7.50;;;3.40;;
68509;SDS011;55512;50.102;19.958;2022-12-07T01:38:46;7.80;;;4.00;;
68509;SDS011;55512;50.102;19.958;2022-12-07T01:41:13;6.80;;;3.10;;
68509;SDS011;55512;50.102;19.958;2022-12-07T01:46:45;8.60;;;4.00;;
68509;SDS011;55512;50.102;19.958;2022-12-07T01:49:20;7.70;;;3.80;;
68509;SDS011;55512;50.102;19.958;2022-12-07T01:51:52;8.10;;;3.80;;
68509;SDS011;55512;50.102;19.958;2022-12-07T01:54:24;7.80;;;3.80;;
68509;SDS011;55512;50.102;19.958;2022-12-07T01:56:53;7.40;;;3.50;;
68509;SDS011;55512;50.102;19.958;2022-12-07T01:59:23;7.80;;;3.50;;
68509;SDS011;55512;50.102;19.958;2022-12-07T02:01:52;9.10;;;3.50;;
68509;SDS011;55512;50.102;19.958;2022-12-07T02:04:19;7.20;;;3.40;;
68509;SDS011;55512;50.102;19.958;2022-12-07T02:06:46;8.20;;;3.40;;
68509;SDS011;55512;50.102;19.958;2022-12-07T02:09:12;6.20;;;3.00;;
68509;SDS011;55512;50.102;19.958;2022-12-07T02:11:38;7.40;;;3.30;;
68509;SDS011;55512;50.102;19.958;2022-12-07T02:14:05;9.40;;;3.60;;
68509;SDS011;55512;50.102;19.958;2022-12-07T02:28:37;9.80;;;4.20;;
68509;SDS011;55512;50.102;19.958;2022-12-07T02:31:15;8.30;;;3.30;;
68509;SDS011;55512;50.102;19.958;2022-12-07T02:33:51;6.90;;;3.20;;
68509;SDS011;55512;50.102;19.958;2022-12-07T02:36:27;7.40;;;3.50;;
68509;SDS011;55512;50.102;19.958;2022-12-07T02:39:03;7.00;;;3.30;;
68509;SDS011;55512;50.102;19.958;2022-12-07T02:41:42;7.20;;;3.50;;
68509;SDS011;55512;50.102;19.958;2022-12-07T02:44:14;7.30;;;3.60;;
68509;SDS011;55512;50.102;19.958;2022-12-07T02:46:51;7.80;;;3.30;;
68509;SDS011;55512;50.102;19.958;2022-12-07T02:49:22;6.70;;;3.50;;
68509;SDS011;55512;50.102;19.958;2022-12-07T02:51:49;7.80;;;3.70;;
68509;SDS011;55512;50.102;19.958;2022-12-07T02:54:17;8.60;;;4.00;;
68509;SDS011;55512;50.102;19.958;2022-12-07T03:05:05;9.40;;;3.80;;
68509;SDS011;55512;50.102;19.958;2022-12-07T03:13:07;6.50;;;3.20;;
68509;SDS011;55512;50.102;19.958;2022-12-07T03:15:54;9.10;;;3.90;;
68509;SDS011;55512;50.102;19.958;2022-12-07T03:18:28;9.80;;;3.70;;
68509;SDS011;55512;50.102;19.958;2022-12-07T03:20:59;9.30;;;4.20;;
68509;SDS011;55512;50.102;19.958;2022-12-07T03:23:31;9.00;;;4.00;;
68509;SDS011;55512;50.102;19.958;2022-12-07T03:26:00;8.80;;;3.80;;
68509;SDS011;55512;50.102;19.958;2022-12-07T03:28:33;8.80;;;4.30;;
68509;SDS011;55512;50.102;19.958;2022-12-07T03:33:40;9.20;;;4.20;;
68509;SDS011;55512;50.102;19.958;2022-12-07T03:36:35;8.60;;;4.10;;
68509;SDS011;55512;50.102;19.958;2022-12-07T03:39:16;8.40;;;4.20;;
68509;SDS011;55512;50.102;19.958;2022-12-07T03:41:44;9.50;;;3.60;;
68509;SDS011;55512;50.102;19.958;2022-12-07T03:44:11;8.50;;;4.20;;
68509;SDS011;55512;50.102;19.958;2022-12-07T03:54:45;9.40;;;4.20;;
68509;SDS011;55512;50.102;19.958;2022-12-07T03:57:17;7.30;;;4.10;;
68509;SDS011;55512;50.102;19.958;2022-12-07T03:59:44;9.30;;;4.30;;
68509;SDS011;55512;50.102;19.958;2022-12-07T04:02:12;8.80;;;4.30;;
68509;SDS011;55512;50.102;19.958;2022-12-07T04:04:39;9.60;;;4.40;;
68509;SDS011;55512;50.102;19.958;2022-12-07T04:07:05;8.20;;;3.80;;
68509;SDS011;55512;50.102;19.958;2022-12-07T04:09:31;10.70;;;4.80;;
68509;SDS011;55512;50.102;19.958;2022-12-07T04:11:56;10.80;;;5.30;;
68509;SDS011;55512;50.102;19.958;2022-12-07T04:14:22;11.00;;;4.60;;
68509;SDS011;55512;50.102;19.958;2022-12-07T04:16:56;9.20;;;4.30;;
68509;SDS011;55512;50.102;19.958;2022-12-07T04:19:25;12.30;;;5.60;;
68509;SDS011;55512;50.102;19.958;2022-12-07T04:21:52;8.80;;;4.10;;
68509;SDS011;55512;50.102;19.958;2022-12-07T04:24:19;9.00;;;4.60;;
68509;SDS011;55512;50.102;19.958;2022-12-07T04:26:46;11.30;;;4.40;;
68509;SDS011;55512;50.102;19.958;2022-12-07T04:29:13;10.70;;;5.00;;
68509;SDS011;55512;50.102;19.958;2022-12-07T04:31:39;10.70;;;4.60;;
68509;SDS011;55512;50.102;19.958;2022-12-07T04:34:05;11.80;;;5.50;;
68509;SDS011;55512;50.102;19.958;2022-12-07T04:36:32;11.60;;;5.30;;
68509;SDS011;55512;50.102;19.958;2022-12-07T04:38:58;11.90;;;5.20;;
68509;SDS011;55512;50.102;19.958;2022-12-07T04:41:25;12.80;;;6.10;;
68509;SDS011;55512;50.102;19.958;2022-12-07T04:44:00;9.80;;;4.80;;
68509;SDS011;55512;50.102;19.958;2022-12-07T04:46:28;12.20;;;5.80;;
68509;SDS011;55512;50.102;19.958;2022-12-07T04:48:55;12.40;;;5.20;;
68509;SDS011;55512;50.102;19.958;2022-12-07T04:51:24;12.70;;;6.90;;
68509;SDS011;55512;50.102;19.958;2022-12-07T04:53:51;12.20;;;5.60;;
68509;SDS011;55512;50.102;19.958;2022-12-07T04:56:17;10.80;;;5.10;;
68509;SDS011;55512;50.102;19.958;2022-12-07T04:58:46;11.60;;;5.30;;
68509;SDS011;55512;50.102;19.958;2022-12-07T05:01:13;11.20;;;4.60;;
68509;SDS011;55512;50.102;19.958;2022-12-07T05:03:40;12.70;;;6.00;;
68509;SDS011;55512;50.102;19.958;2022-12-07T05:06:06;11.50;;;5.70;;
68509;SDS011;55512;50.102;19.958;2022-12-07T05:08:33;16.20;;;6.50;;
68509;SDS011;55512;50.102;19.958;2022-12-07T05:11:00;10.80;;;5.30;;
68509;SDS011;55512;50.102;19.958;2022-12-07T05:13:27;12.30;;;5.50;;
68509;SDS011;55512;50.102;19.958;2022-12-07T05:15:52;11.30;;;5.70;;
68509;SDS011;55512;50.102;19.958;2022-12-07T05:18:18;14.40;;;5.70;;
68509;SDS011;55512;50.102;19.958;2022-12-07T05:20:44;8.50;;;4.30;;
68509;SDS011;55512;50.102;19.958;2022-12-07T05:23:10;9.80;;;4.50;;
68509;SDS011;55512;50.102;19.958;2022-12-07T05:25:36;9.10;;;4.50;;
68509;SDS011;55512;50.102;19.958;2022-12-07T05:28:03;10.60;;;4.70;;
68509;SDS011;55512;50.102;19.958;2022-12-07T05:30:29;9.80;;;4.30;;
68509;SDS011;55512;50.102;19.958;2022-12-07T05:32:55;9.60;;;5.20;;
68509;SDS011;55512;50.102;19.958;2022-12-07T05:35:20;10.90;;;5.20;;
68509;SDS011;55512;50.102;19.958;2022-12-07T05:37:46;13.10;;;6.30;;
68509;SDS011;55512;50.102;19.958;2022-12-07T05:40:13;11.00;;;5.60;;
68509;SDS011;55512;50.102;19.958;2022-12-07T05:42:39;12.60;;;5.40;;
68509;SDS011;55512;50.102;19.958;2022-12-07T05:45:06;11.60;;;4.90;;
68509;SDS011;55512;50.102;19.958;2022-12-07T05:47:33;9.60;;;3.90;;
68509;SDS011;55512;50.102;19.958;2022-12-07T05:49:58;10.10;;;5.30;;
68509;SDS011;55512;50.102;19.958;2022-12-07T05:52:24;10.40;;;5.30;;
68509;SDS011;55512;50.102;19.958;2022-12-07T05:54:49;9.70;;;4.70;;
68509;SDS011;55512;50.102;19.958;2022-12-07T05:57:15;10.40;;;5.10;;
68509;SDS011;55512;50.102;19.958;2022-12-07T05:59:41;9.90;;;5.60;;
68509;SDS011;55512;50.102;19.958;2022-12-07T06:02:12;11.60;;;5.10;;
68509;SDS011;55512;50.102;19.958;2022-12-07T06:04:42;9.10;;;5.00;;
68509;SDS011;55512;50.102;19.958;2022-12-07T06:07:11;8.30;;;4.10;;
68509;SDS011;55512;50.102;19.958;2022-12-07T06:09:38;10.40;;;4.90;;
68509;SDS011;55512;50.102;19.958;2022-12-07T06:12:04;9.70;;;4.80;;
68509;SDS011;55512;50.102;19.958;2022-12-07T06:14:49;9.50;;;4.90;;
68509;SDS011;55512;50.102;19.958;2022-12-07T06:17:15;11.50;;;5.20;;
68509;SDS011;55512;50.102;19.958;2022-12-07T06:19:41;9.00;;;4.20;;
68509;SDS011;55512;50.102;19.958;2022-12-07T06:22:08;10.00;;;5.00;;
68509;SDS011;55512;50.102;19.958;2022-12-07T06:24:34;9.30;;;4.50;;
68509;SDS011;55512;50.102;19.958;2022-12-07T06:27:00;8.50;;;4.30;;
68509;SDS011;55512;50.102;19.958;2022-12-07T06:29:26;8.30;;;3.90;;
68509;SDS011;55512;50.102;19.958;2022-12-07T06:31:51;9.80;;;4.20;;
68509;SDS011;55512;50.102;19.958;2022-12-07T06:34:19;6.00;;;2.00;;
68509;SDS011;55512;50.102;19.958;2022-12-07T06:36:46;8.90;;;4.10;;
68509;SDS011;55512;50.102;19.958;2022-12-07T06:39:17;9.50;;;4.80;;
68509;SDS011;55512;50.102;19.958;2022-12-07T06:41:43;8.70;;;4.00;;
68509;SDS011;55512;50.102;19.958;2022-12-07T06:44:10;9.00;;;4.00;;
68509;SDS011;55512;50.102;19.958;2022-12-07T06:46:36;9.20;;;4.40;;
68509;SDS011;55512;50.102;19.958;2022-12-07T06:49:02;8.60;;;4.40;;
68509;SDS011;55512;50.102;19.958;2022-12-07T06:51:29;11.20;;;4.80;;
68509;SDS011;55512;50.102;19.958;2022-12-07T06:53:55;8.70;;;4.30;;
68509;SDS011;55512;50.102;19.958;2022-12-07T06:56:20;9.90;;;4.00;;
68509;SDS011;55512;50.102;19.958;2022-12-07T06:58:46;9.20;;;4.20;;
68509;SDS011;55512;50.102;19.958;2022-12-07T07:01:17;8.80;;;3.80;;
68509;SDS011;55512;50.102;19.958;2022-12-07T07:03:44;9.40;;;4.60;;
68509;SDS011;55512;50.102;19.958;2022-12-07T07:06:11;10.40;;;4.40;;
68509;SDS011;55512;50.102;19.958;2022-12-07T07:08:38;10.70;;;4.60;;
68509;SDS011;55512;50.102;19.958;2022-12-07T07:11:05;9.40;;;4.70;;
68509;SDS011;55512;50.102;19.958;2022-12-07T07:13:31;9.30;;;4.40;;
68509;SDS011;55512;50.102;19.958;2022-12-07T07:15:57;12.00;;;4.20;;
68509;SDS011;55512;50.102;19.958;2022-12-07T07:18:23;9.90;;;5.20;;
68509;SDS011;55512;50.102;19.958;2022-12-07T07:20:53;10.90;;;4.70;;
68509;SDS011;55512;50.102;19.958;2022-12-07T07:23:20;9.40;;;4.40;;
68509;SDS011;55512;50.102;19.958;2022-12-07T07:25:47;7.70;;;3.00;;
68509;SDS011;55512;50.102;19.958;2022-12-07T07:28:13;9.00;;;4.10;;
68509;SDS011;55512;50.102;19.958;2022-12-07T07:30:39;10.50;;;4.10;;
68509;SDS011;55512;50.102;19.958;2022-12-07T07:33:05;10.60;;;4.50;;
68509;SDS011;55512;50.102;19.958;2022-12-07T07:35:33;7.60;;;3.20;;
68509;SDS011;55512;50.102;19.958;2022-12-07T07:38:00;8.50;;;3.00;;
68509;SDS011;55512;50.102;19.958;2022-12-07T07:40:27;8.00;;;3.60;;
68509;SDS011;55512;50.102;19.958;2022-12-07T07:42:55;9.60;;;4.70;;
68509;SDS011;55512;50.102;19.958;2022-12-07T07:45:22;12.00;;;4.90;;
68509;SDS011;55512;50.102;19.958;2022-12-07T07:47:49;11.40;;;4.40;;
68509;SDS011;55512;50.102;19.958;2022-12-07T07:50:15;10.70;;;4.60;;
68509;SDS011;55512;50.102;19.958;2022-12-07T07:52:42;10.70;;;4.90;;
68509;SDS011;55512;50.102;19.958;2022-12-07T07:55:08;12.20;;;5.50;;
68509;SDS011;55512;50.102;19.958;2022-12-07T07:57:38;12.20;;;5.10;;
68509;SDS011;55512;50.102;19.958;2022-12-07T08:00:07;13.00;;;5.20;;
68509;SDS011;55512;50.102;19.958;2022-12-07T08:02:35;9.50;;;4.30;;
68509;SDS011;55512;50.102;19.958;2022-12-07T08:05:00;13.00;;;5.50;;
68509;SDS011;55512;50.102;19.958;2022-12-07T08:07:27;13.10;;;5.60;;
68509;SDS011;55512;50.102;19.958;2022-12-07T08:09:53;13.30;;;5.80;;
68509;SDS011;55512;50.102;19.958;2022-12-07T08:12:19;13.10;;;6.40;;
68509;SDS011;55512;50.102;19.958;2022-12-07T08:14:44;14.50;;;6.10;;
68509;SDS011;55512;50.102;19.958;2022-12-07T08:17:10;13.90;;;6.50;;
68509;SDS011;55512;50.102;19.958;2022-12-07T08:19:36;13.00;;;5.50;;
68509;SDS011;55512;50.102;19.958;2022-12-07T08:22:01;13.90;;;6.30;;
68509;SDS011;55512;50.102;19.958;2022-12-07T08:24:27;14.30;;;6.50;;
68509;SDS011;55512;50.102;19.958;2022-12-07T08:26:52;12.40;;;5.00;;
68509;SDS011;55512;50.102;19.958;2022-12-07T08:29:18;12.40;;;5.40;;
68509;SDS011;55512;50.102;19.958;2022-12-07T08:31:44;10.80;;;4.60;;
68509;SDS011;55512;50.102;19.958;2022-12-07T08:34:11;11.60;;;5.40;;
68509;SDS011;55512;50.102;19.958;2022-12-07T08:36:37;10.20;;;4.50;;
68509;SDS011;55512;50.102;19.958;2022-12-07T08:39:03;11.40;;;5.40;;
68509;SDS011;55512;50.102;19.958;2022-12-07T08:41:29;11.90;;;5.10;;
68509;SDS011;55512;50.102;19.958;2022-12-07T08:43:54;11.00;;;5.00;;
68509;SDS011;55512;50.102;19.958;2022-12-07T08:46:36;11.60;;;4.80;;
68509;SDS011;55512;50.102;19.958;2022-12-07T08:51:45;13.10;;;5.70;;
68509;SDS011;55512;50.102;19.958;2022-12-07T08:54:15;12.90;;;5.50;;
68509;SDS011;55512;50.102;19.958;2022-12-07T08:56:43;10.20;;;5.50;;
68509;SDS011;55512;50.102;19.958;2022-12-07T08:59:13;11.30;;;5.20;;
68509;SDS011;55512;50.102;19.958;2022-12-07T09:01:41;10.10;;;4.90;;
68509;SDS011;55512;50.102;19.958;2022-12-07T09:04:07;12.20;;;5.90;;
68509;SDS011;55512;50.102;19.958;2022-12-07T09:06:33;13.50;;;5.70;;
68509;SDS011;55512;50.102;19.958;2022-12-07T09:09:00;9.80;;;5.40;;
68509;SDS011;55512;50.102;19.958;2022-12-07T09:11:27;12.30;;;4.90;;
68509;SDS011;55512;50.102;19.958;2022-12-07T09:13:52;10.80;;;6.20;;
68509;SDS011;55512;50.102;19.958;2022-12-07T09:16:18;11.30;;;5.80;;
68509;SDS011;55512;50.102;19.958;2022-12-07T09:18:44;10.20;;;5.50;;
68509;SDS011;55512;50.102;19.958;2022-12-07T09:21:09;12.20;;;5.80;;
68509;SDS011;55512;50.102;19.958;2022-12-07T09:23:35;10.30;;;4.90;;
68509;SDS011;55512;50.102;19.958;2022-12-07T09:26:04;10.70;;;5.70;;
68509;SDS011;55512;50.102;19.958;2022-12-07T09:28:31;12.30;;;6.30;;
68509;SDS011;55512;50.102;19.958;2022-12-07T09:30:56;11.10;;;6.10;;
68509;SDS011;55512;50.102;19.958;2022-12-07T09:33:22;11.10;;;5.40;;
68509;SDS011;55512;50.102;19.958;2022-12-07T09:35:48;8.10;;;3.70;;
68509;SDS011;55512;50.102;19.958;2022-12-07T09:38:16;10.70;;;5.20;;
68509;SDS011;55512;50.102;19.958;2022-12-07T09:40:42;9.40;;;4.40;;
68509;SDS011;55512;50.102;19.958;2022-12-07T09:43:13;11.10;;;5.00;;
68509;SDS011;55512;50.102;19.958;2022-12-07T09:45:52;11.20;;;5.40;;
68509;SDS011;55512;50.102;19.958;2022-12-07T09:48:31;12.40;;;5.80;;
68509;SDS011;55512;50.102;19.958;2022-12-07T09:51:01;9.50;;;3.80;;
68509;SDS011;55512;50.102;19.958;2022-12-07T09:53:29;9.70;;;4.30;;
68509;SDS011;55512;50.102;19.958;2022-12-07T09:55:58;11.10;;;5.30;;
68509;SDS011;55512;50.102;19.958;2022-12-07T09:58:27;11.30;;;5.30;;
68509;SDS011;55512;50.102;19.958;2022-12-07T10:03:44;10.60;;;5.50;;
68509;SDS011;55512;50.102;19.958;2022-12-07T10:06:30;9.30;;;4.60;;
68509;SDS011;55512;50.102;19.958;2022-12-07T10:08:56;9.90;;;4.80;;
68509;SDS011;55512;50.102;19.958;2022-12-07T10:11:21;10.70;;;5.50;;
68509;SDS011;55512;50.102;19.958;2022-12-07T10:13:49;11.70;;;5.70;;
68509;SDS011;55512;50.102;19.958;2022-12-07T10:18:51;10.00;;;4.50;;
68509;SDS011;55512;50.102;19.958;2022-12-07T10:21:19;10.00;;;4.10;;
68509;SDS011;55512;50.102;19.958;2022-12-07T10:26:56;10.30;;;4.20;;
68509;SDS011;55512;50.102;19.958;2022-12-07T10:29:24;10.30;;;5.30;;
68509;SDS011;55512;50.102;19.958;2022-12-07T10:34:42;10.80;;;5.30;;
68509;SDS011;55512;50.102;19.958;2022-12-07T10:37:17;9.90;;;4.90;;
68509;SDS011;55512;50.102;19.958;2022-12-07T10:39:51;8.60;;;4.60;;
68509;SDS011;55512;50.102;19.958;2022-12-07T10:42:26;9.60;;;4.30;;
68509;SDS011;55512;50.102;19.958;2022-12-07T10:47:55;8.30;;;4.40;;
68509;SDS011;55512;50.102;19.958;2022-12-07T11:05:13;11.30;;;5.80;;
68509;SDS011;55512;50.102;19.958;2022-12-07T11:11:23;10.60;;;6.50;;
68509;SDS011;55512;50.102;19.958;2022-12-07T11:13:59;11.50;;;5.50;;
68509;SDS011;55512;50.102;19.958;2022-12-07T11:16:55;10.20;;;5.50;;
68509;SDS011;55512;50.102;19.958;2022-12-07T11:22:16;9.70;;;4.70;;
68509;SDS011;55512;50.102;19.958;2022-12-07T11:25:20;7.30;;;3.40;;
68509;SDS011;55512;50.102;19.958;2022-12-07T11:31:24;9.90;;;5.00;;
68509;SDS011;55512;50.102;19.958;2022-12-07T11:36:41;10.00;;;4.70;;
68509;SDS011;55512;50.102;19.958;2022-12-07T11:39:25;8.90;;;4.40;;
68509;SDS011;55512;50.102;19.958;2022-12-07T11:42:05;10.60;;;4.80;;
68509;SDS011;55512;50.102;19.958;2022-12-07T11:44:51;10.40;;;5.20;;
68509;SDS011;55512;50.102;19.958;2022-12-07T11:47:27;8.40;;;3.60;;
68509;SDS011;55512;50.102;19.958;2022-12-07T11:52:48;8.00;;;4.20;;
68509;SDS011;55512;50.102;19.958;2022-12-07T11:58:20;8.50;;;4.00;;
68509;SDS011;55512;50.102;19.958;2022-12-07T12:00:49;10.00;;;4.70;;
68509;SDS011;55512;50.102;19.958;2022-12-07T12:03:29;8.90;;;4.30;;
68509;SDS011;55512;50.102;19.958;2022-12-07T12:05:58;10.10;;;4.70;;
68509;SDS011;55512;50.102;19.958;2022-12-07T12:08:39;7.70;;;3.50;;
68509;SDS011;55512;50.102;19.958;2022-12-07T12:11:35;8.50;;;3.80;;
68509;SDS011;55512;50.102;19.958;2022-12-07T12:20:17;9.00;;;4.40;;
68509;SDS011;55512;50.102;19.958;2022-12-07T12:22:55;8.30;;;3.90;;
68509;SDS011;55512;50.102;19.958;2022-12-07T12:25:28;10.00;;;4.20;;
68509;SDS011;55512;50.102;19.958;2022-12-07T12:28:00;8.20;;;4.40;;
68509;SDS011;55512;50.102;19.958;2022-12-07T12:30:37;7.60;;;3.70;;
68509;SDS011;55512;50.102;19.958;2022-12-07T12:33:15;7.10;;;3.50;;
68509;SDS011;55512;50.102;19.958;2022-12-07T12:39:14;8.30;;;3.50;;
68509;SDS011;55512;50.102;19.958;2022-12-07T12:46:59;9.40;;;4.80;;
68509;SDS011;55512;50.102;19.958;2022-12-07T12:49:40;7.50;;;3.90;;
68509;SDS011;55512;50.102;19.958;2022-12-07T12:55:10;9.90;;;4.50;;
68509;SDS011;55512;50.102;19.958;2022-12-07T12:57:38;11.10;;;4.30;;
68509;SDS011;55512;50.102;19.958;2022-12-07T13:00:21;8.70;;;4.20;;
68509;SDS011;55512;50.102;19.958;2022-12-07T13:02:51;10.70;;;5.00;;
68509;SDS011;55512;50.102;19.958;2022-12-07T13:05:28;10.10;;;4.90;;
68509;SDS011;55512;50.102;19.958;2022-12-07T13:08:25;7.80;;;3.80;;
68509;SDS011;55512;50.102;19.958;2022-12-07T13:10:51;8.40;;;3.30;;
68509;SDS011;55512;50.102;19.958;2022-12-07T13:26:36;8.60;;;3.80;;
68509;SDS011;55512;50.102;19.958;2022-12-07T13:31:40;6.10;;;2.70;;
68509;SDS011;55512;50.102;19.958;2022-12-07T13:37:02;8.80;;;2.80;;
68509;SDS011;55512;50.102;19.958;2022-12-07T13:39:34;6.10;;;2.80;;
68509;SDS011;55512;50.102;19.958;2022-12-07T13:42:08;6.70;;;2.60;;
68509;SDS011;55512;50.102;19.958;2022-12-07T13:44:43;6.00;;;2.70;;
68509;SDS011;55512;50.102;19.958;2022-12-07T13:47:16;7.80;;;3.30;;
68509;SDS011;55512;50.102;19.958;2022-12-07T13:52:47;7.30;;;2.90;;
68509;SDS011;55512;50.102;19.958;2022-12-07T13:55:16;7.40;;;3.10;;
68509;SDS011;55512;50.102;19.958;2022-12-07T13:57:44;6.80;;;2.70;;
68509;SDS011;55512;50.102;19.958;2022-12-07T14:00:25;5.70;;;2.60;;
68509;SDS011;55512;50.102;19.958;2022-12-07T14:02:59;8.70;;;3.10;;
68509;SDS011;55512;50.102;19.958;2022-12-07T14:05:32;8.60;;;3.70;;
68509;SDS011;55512;50.102;19.958;2022-12-07T14:08:22;8.30;;;3.80;;
68509;SDS011;55512;50.102;19.958;2022-12-07T14:13:30;8.40;;;3.70;;
68509;SDS011;55512;50.102;19.958;2022-12-07T14:16:16;6.40;;;2.70;;
68509;SDS011;55512;50.102;19.958;2022-12-07T14:18:53;7.30;;;3.20;;
68509;SDS011;55512;50.102;19.958;2022-12-07T14:21:28;8.50;;;3.90;;
68509;SDS011;55512;50.102;19.958;2022-12-07T14:24:08;7.60;;;3.50;;
68509;SDS011;55512;50.102;19.958;2022-12-07T14:26:34;8.50;;;4.40;;
68509;SDS011;55512;50.102;19.958;2022-12-07T14:31:52;9.30;;;4.10;;
68509;SDS011;55512;50.102;19.958;2022-12-07T14:34:22;9.70;;;4.20;;
68509;SDS011;55512;50.102;19.958;2022-12-07T14:36:49;8.80;;;4.20;;
68509;SDS011;55512;50.102;19.958;2022-12-07T14:39:14;9.00;;;4.10;;
68509;SDS011;55512;50.102;19.958;2022-12-07T14:41:40;8.50;;;4.20;;
68509;SDS011;55512;50.102;19.958;2022-12-07T14:44:19;8.00;;;3.70;;
68509;SDS011;55512;50.102;19.958;2022-12-07T14:46:47;8.40;;;3.70;;
68509;SDS011;55512;50.102;19.958;2022-12-07T14:49:14;9.60;;;4.60;;
68509;SDS011;55512;50.102;19.958;2022-12-07T14:51:40;7.70;;;3.80;;
68509;SDS011;55512;50.102;19.958;2022-12-07T14:54:19;7.70;;;4.00;;
68509;SDS011;55512;50.102;19.958;2022-12-07T14:56:46;8.60;;;4.10;;
68509;SDS011;55512;50.102;19.958;2022-12-07T14:59:16;7.90;;;4.40;;
68509;SDS011;55512;50.102;19.958;2022-12-07T15:01:42;8.70;;;4.40;;
68509;SDS011;55512;50.102;19.958;2022-12-07T15:04:08;10.00;;;4.30;;
68509;SDS011;55512;50.102;19.958;2022-12-07T15:06:33;9.40;;;4.70;;
68509;SDS011;55512;50.102;19.958;2022-12-07T15:08:59;7.90;;;3.90;;
68509;SDS011;55512;50.102;19.958;2022-12-07T15:11:24;9.20;;;4.70;;
68509;SDS011;55512;50.102;19.958;2022-12-07T15:13:50;7.70;;;3.80;;
68509;SDS011;55512;50.102;19.958;2022-12-07T15:16:37;9.90;;;5.40;;
68509;SDS011;55512;50.102;19.958;2022-12-07T15:19:18;10.80;;;5.40;;
68509;SDS011;55512;50.102;19.958;2022-12-07T15:21:51;10.50;;;5.30;;
68509;SDS011;55512;50.102;19.958;2022-12-07T15:24:18;11.40;;;5.90;;
68509;SDS011;55512;50.102;19.958;2022-12-07T15:26:44;11.00;;;5.40;;
68509;SDS011;55512;50.102;19.958;2022-12-07T15:29:11;10.90;;;5.70;;
68509;SDS011;55512;50.102;19.958;2022-12-07T15:31:37;11.50;;;5.30;;
68509;SDS011;55512;50.102;19.958;2022-12-07T15:34:03;9.90;;;5.20;;
68509;SDS011;55512;50.102;19.958;2022-12-07T15:36:30;10.40;;;5.40;;
68509;SDS011;55512;50.102;19.958;2022-12-07T15:38:57;11.50;;;5.40;;
68509;SDS011;55512;50.102;19.958;2022-12-07T15:41:23;10.70;;;5.70;;
68509;SDS011;55512;50.102;19.958;2022-12-07T15:43:49;10.80;;;5.70;;
68509;SDS011;55512;50.102;19.958;2022-12-07T15:46:39;10.80;;;5.30;;
68509;SDS011;55512;50.102;19.958;2022-12-07T15:49:10;12.90;;;6.20;;
68509;SDS011;55512;50.102;19.958;2022-12-07T15:51:37;10.40;;;5.80;;
68509;SDS011;55512;50.102;19.958;2022-12-07T15:54:03;13.40;;;5.90;;
68509;SDS011;55512;50.102;19.958;2022-12-07T15:56:28;11.40;;;5.30;;
68509;SDS011;55512;50.102;19.958;2022-12-07T15:58:56;13.00;;;6.30;;
68509;SDS011;55512;50.102;19.958;2022-12-07T16:01:22;13.20;;;6.60;;
68509;SDS011;55512;50.102;19.958;2022-12-07T16:03:47;12.60;;;6.20;;
68509;SDS011;55512;50.102;19.958;2022-12-07T16:06:17;13.10;;;6.00;;
68509;SDS011;55512;50.102;19.958;2022-12-07T16:08:45;11.00;;;5.60;;
68509;SDS011;55512;50.102;19.958;2022-12-07T16:11:11;12.70;;;6.10;;
68509;SDS011;55512;50.102;19.958;2022-12-07T16:13:38;11.60;;;5.30;;
68509;SDS011;55512;50.102;19.958;2022-12-07T16:16:06;9.60;;;4.90;;
68509;SDS011;55512;50.102;19.958;2022-12-07T16:18:33;12.40;;;6.00;;
68509;SDS011;55512;50.102;19.958;2022-12-07T16:20:59;12.10;;;6.00;;
68509;SDS011;55512;50.102;19.958;2022-12-07T16:23:24;12.10;;;5.80;;
68509;SDS011;55512;50.102;19.958;2022-12-07T16:25:50;14.30;;;5.90;;
68509;SDS011;55512;50.102;19.958;2022-12-07T16:28:16;12.20;;;5.90;;
68509;SDS011;55512;50.102;19.958;2022-12-07T16:30:41;13.60;;;6.00;;
68509;SDS011;55512;50.102;19.958;2022-12-07T16:33:07;12.30;;;6.10;;
68509;SDS011;55512;50.102;19.958;2022-12-07T16:35:32;11.70;;;5.80;;
68509;SDS011;55512;50.102;19.958;2022-12-07T16:37:58;11.80;;;5.50;;
68509;SDS011;55512;50.102;19.958;2022-12-07T16:40:23;10.50;;;5.70;;
68509;SDS011;55512;50.102;19.958;2022-12-07T16:42:49;13.20;;;5.90;;
68509;SDS011;55512;50.102;19.958;2022-12-07T16:45:14;12.90;;;6.30;;
68509;SDS011;55512;50.102;19.958;2022-12-07T16:47:40;10.10;;;5.80;;
68509;SDS011;55512;50.102;19.958;2022-12-07T16:50:06;10.50;;;5.10;;
68509;SDS011;55512;50.102;19.958;2022-12-07T16:52:34;11.50;;;6.00;;
68509;SDS011;55512;50.102;19.958;2022-12-07T16:55:00;13.00;;;5.50;;
68509;SDS011;55512;50.102;19.958;2022-12-07T16:57:25;11.60;;;5.90;;